Aérodrome :
LOGIN :

S'inscrire | Disclaimer

   EN    FR    IT 

 










Légende :    VFR   VFR Marginal   IFR   IFR Intensif   IFR Très Intensif
Visi : 
Plafond : 
>= 8 km
>= 3000ft
5 à 8 km
1000 à 3000 ft
1500m à 5 km
500 à 1000 ft
800 à 1500m
200 à 500 ft
< 800m
< 200 ft
Symboles :   Orages  Brouillard  Fortes neiges  Fortes précipitations  Vent > 20 kt
SIGMETs :   Divers  Orages  Givrage  Turbulence  Onde Orograph.  Cendres Volcan.






- Altitude de l'aérodrome : 74 ft
- Code IATA : LRH


LFBH - La Rochelle Ile de Ré

DERNIER METAR :
  • 251230Z AUTO 28015KT 9999 BKN025 BKN052 12/07 Q1013 TEMPO 29020G30KT

METARs EXPIRÉS :
  • 251200Z AUTO 28018KT 9999 FEW025 BKN039 BKN048 12/07 Q1014 TEMPO 29020G30KT
  • 251130Z AUTO 29018KT 9999 FEW021 SCT029 BKN046 11/07 Q1014 BECMG 28015G25KT
  • 251100Z AUTO 29019G30KT 9999 FEW020 SCT026 BKN035 10/08 Q1014 NOSIG
  • 251030Z AUTO 29014KT 9999 FEW023 OVC046 12/08 Q1014 BECMG 28015G25KT
  • 251000Z AUTO 28013KT 9999 BKN015 BKN022 OVC050 12/09 Q1014 BECMG 28015G25KT

TAF TAF LFBH
Valide du 25 à 12h jusqu'au 26 à 12h UTC


251100Z 2512/2612 27015G25KT 9999 SCT020
TEMPO 2512/2515 29020G30KT
TEMPO 2515/2612 29025G35KT 3000 SHRA BKN020TCU
PROB30
TEMPO 2522/2612 30025G40KT BKN015CB
ATIS : +33 5 46 00 13 92



MET'MAP, la Météo Aéronautique d'un coup d'oeil ! - Copyright ORBIFLY Décembre 2007 - Disclaimer

ORBIFLY MET'MAP TEAM :

Programmation & Développement : Alexandra Zaïnal
Sur une idée originale de : Baudouin d'Aumeries
Assistance à la programmation : Marc-Olivier Méhu
Soutien technique & logistique : Manuel Goepfert

Contact : metmap@orbifly.com




SOURCES & CREDITS :

   NOAA